LFBOLEGE

Guest
Details From LFBO - Toulouse Blagnac
To LEGE - Girona
Flight Number -
Tags generated
Created
Modified
Stats Distance 121 nm / 223 km
Max Altitude 15,100 ft / 4,602 m
Waypoints 3
Social Downloads 2
Likes 0
Share VATSIM

Download

Looking for another format? Having issues loading an existing format? Contact us
Advertisement - Login to hide

Notes

Basic altitude profile: - Ascent Rate: 2500ft/min - Ascent Speed: 250kts - Cruise Altitude: 35000ft - Cruise Speed: 420kts - Descent Rate: 1500ft/min - Descent Speed: 250kts Options: - Use NATs: yes - Use PACOTS: yes - Use low airways: yes - Use high airways: yes

Route

LFBO GAI57 LEGE

ID Type Via Altitude Latitude Longitude Leg Dist Tot Dist Heading (true) Name
O LFBO APT - 0 ft / 0 m 43.62903˚ 1.36397˚ - 0 nm - Toulouse Blagnac
GAI57 FIX - 15,100 ft / 4,602 m 43.00000˚ 1.93611˚ 45 nm 45 nm 146° / 147° -
O LEGE APT - 0 ft / 0 m 41.90520˚ 2.76213˚ 75 nm 120 nm 151° / 151° Girona

Altitude Profile

Advertisement - Login to hide

LFBO

Details ICAO LFBO (TLS)
Name Toulouse Blagnac
Region France
Timezone Europe/Paris (UTC+2.0)
Stats Elevation 499 ft / 152 m (AMSL)
Location 43.629026° 1.363969°
Runways 2
Magnetic Variation 0.627° E

METAR

LFBO 231700Z AUTO 31008KT CAVOK 24/10 Q1015 NOSIG

Decode

TAF

TAF LFBO 231100Z 2312/2418 35004KT CAVOK TEMPO 2312/2315 SCT030 BECMG 2400/2402 13005KT BECMG 2407/2409 13010KT PROB40 TEMPO 2410/2412 SCT030

Decode

Departure Runways

ID Width Length Bearing (true) Bearing (mag) Surface Threshold Offset Overrun Length
14L 148 ft / 45 m 9,923 ft / 3,025 m 143.00° 142.37° Asphalt 0 ft / 0 m 0 ft / 0 m
14R 148 ft / 45 m 11,484 ft / 3,500 m 142.99° 142.36° Asphalt 0 ft / 0 m 295 ft / 90 m
32L 148 ft / 45 m 11,484 ft / 3,500 m 323.01° 322.38° Asphalt 0 ft / 0 m 197 ft / 60 m
32R 148 ft / 45 m 9,923 ft / 3,025 m 323.02° 322.39° Asphalt 0 ft / 0 m 0 ft / 0 m

LEGE

Details ICAO LEGE (GRO)
Name Girona
Region Spain
Timezone Europe/Madrid (UTC+2.0)
Stats Elevation 403 ft / 123 m (AMSL)
Location 41.905202° 2.762133°
Runways 1
Magnetic Variation 1.027° E

METAR

LEGE 231700Z 18007KT 150V210 9999 FEW035 21/15 Q1016

Decode

TAF

TAF LEGE 231100Z 2312/2412 17012KT 9999 SCT040 TX26/2313Z TN12/2406Z PROB40 TEMPO 2312/2318 SHRA FEW040TCU BECMG 2318/2320 VRB03KT PROB30 TEMPO 2402/2406 3000 BR

Decode

Destination Runways

ID Width Length Bearing (true) Bearing (mag) Surface Threshold Offset Overrun Length
02 148 ft / 45 m 7,880 ft / 2,402 m 15.50° 14.47° Asphalt 0 ft / 0 m 210 ft / 64 m
20 148 ft / 45 m 7,880 ft / 2,402 m 195.50° 194.47° Asphalt 0 ft / 0 m 200 ft / 61 m

Approach Navaids

Runway Type Ident Frequency Range Bearing (true) Bearing (mag) Slope Elevation
20 Localiser IGN 109.90 MHz 18 nm / 33 km 195.60° 194.57° - 468 ft / 143 m (AMSL)
20 Glidescope IGN 109.90 MHz 10 nm / 19 km 195.50° 194.47° 3.00° 403 ft / 123 m (AMSL)
20 DME IGN 109.90 MHz 18 nm / 33 km - - - 463 ft / 141 m (AMSL)

Popular Alternatives